| time (UTC) | temp C | wind direction | speed KPH | gust KPH | rain 1hr cm | rain 24hr cm | rain mn cm | humidity % | barometer mb |
| 20260503004418 | 15 | 0.0 | 0.0 | 0.00 | 0.00 | 0.00 | 46 | 1016.6 | |
| 20260503003418 | 15 | 0.0 | 0.0 | 0.00 | 0.00 | 0.00 | 47 | 1016.6 | |
| 20260503002415 | 16 | 0.0 | 0.0 | 0.00 | 0.00 | 0.00 | 46 | 1016.6 | |
| 20260503001415 | 16 | 0.0 | 0.0 | 0.00 | 0.00 | 0.00 | 47 | 1016.6 | |
| 20260502235413 | 15 | 0.0 | 0.0 | 0.00 | 0.00 | 0.00 | 49 | 1016.8 | |
| 20260502234414 | 15 | 0.0 | 0.0 | 0.00 | 0.00 | 0.00 | 48 | 1016.8 | |
| 20260502233418 | 15 | 0.0 | 0.0 | 0.00 | 0.00 | 0.00 | 48 | 1017.0 | |
| 20260502232417 | 16 | 0.0 | 0.0 | 0.00 | 0.00 | 0.00 | 45 | 1016.9 | |
| 20260502231418 | 16 | 0.0 | 0.0 | 0.00 | 0.00 | 0.00 | 44 | 1017.0 | |
| 20260502230414 | 16 | 0.0 | 0.0 | 0.00 | 0.00 | 0.00 | 43 | 1017.0 | |
| 20260502225418 | 16 | 0.0 | 0.0 | 0.00 | 0.00 | 0.00 | 43 | 1017.1 | |
| 20260502224413 | 16 | 0.0 | 0.0 | 0.00 | 0.00 | 0.00 | 42 | 1017.2 | |
| 20260502223415 | 16 | 0.0 | 0.0 | 0.00 | 0.00 | 0.00 | 43 | 1017.3 | |
| 20260502222413 | 16 | 0.0 | 0.0 | 0.00 | 0.00 | 0.00 | 43 | 1017.4 | |
| 20260502221414 | 17 | 0.0 | 0.0 | 0.00 | 0.00 | 0.00 | 43 | 1017.3 | |
| 20260502220414 | 17 | 0.0 | 0.0 | 0.00 | 0.00 | 0.00 | 43 | 1017.3 | |
| 20260502215414 | 17 | 0.0 | 0.0 | 0.00 | 0.00 | 0.00 | 42 | 1017.4 | |
| 20260502214418 | 17 | 0.0 | 0.0 | 0.00 | 0.00 | 0.00 | 42 | 1017.4 | |
| 20260502213418 | 17 | 0.0 | 0.0 | 0.00 | 0.00 | 0.00 | 41 | 1017.4 | |
| 20260502212413 | 18 | 0.0 | 0.0 | 0.00 | 0.00 | 0.00 | 39 | 1017.4 | |
| 20260502211418 | 18 | 0.0 | 0.0 | 0.00 | 0.00 | 0.00 | 38 | 1017.6 | |
| 20260502210417 | 18 | 0.0 | 0.0 | 0.00 | 0.00 | 0.00 | 38 | 1017.7 | |
| 20260502205414 | 18 | 0.0 | 0.0 | 0.00 | 0.00 | 0.00 | 38 | 1017.6 | |
| 20260502204414 | 18 | 0.0 | 0.0 | 0.00 | 0.00 | 0.00 | 38 | 1017.7 | |
| 20260502203413 | 19 | 0.0 | 0.0 | 0.00 | 0.00 | 0.00 | 37 | 1017.7 | |
| 20260502202414 | 19 | 0.0 | 0.0 | 0.00 | 0.00 | 0.00 | 38 | 1017.7 | |
| 20260502201414 | 19 | 0.0 | 0.0 | 0.00 | 0.00 | 0.00 | 37 | 1017.8 | |
| 20260502200418 | 20 | 0.0 | 0.0 | 0.00 | 0.00 | 0.00 | 36 | 1017.7 | |
| 20260502195417 | 20 | 0.0 | 0.0 | 0.00 | 0.00 | 0.00 | 36 | 1017.8 | |
| 20260502194418 | 20 | 0.0 | 0.0 | 0.00 | 0.00 | 0.00 | 35 | 1017.7 | |
| 20260502192414 | 21 | 0.0 | 0.0 | 0.00 | 0.00 | 0.00 | 34 | 1017.7 | |
| 20260502191418 | 21 | 0.0 | 0.0 | 0.00 | 0.00 | 0.00 | 34 | 1017.8 | |
| 20260502185416 | 21 | 0.0 | 0.0 | 0.00 | 0.00 | 0.00 | 32 | 1017.7 | |
| 20260502183414 | 22 | 0.0 | 0.0 | 0.00 | 0.00 | 0.00 | 31 | 1017.7 | |
| 20260502182413 | 22 | 0.0 | 0.0 | 0.00 | 0.00 | 0.00 | 30 | 1017.6 | |
| 20260502181415 | 22 | 0.0 | 0.0 | 0.00 | 0.00 | 0.00 | 30 | 1017.5 | |
| 20260502180419 | 23 | 0.0 | 0.0 | 0.00 | 0.00 | 0.00 | 29 | 1017.4 | |
| 20260502170414 | 25 | 0.0 | 0.0 | 0.00 | 0.00 | 0.00 | 25 | 1017.6 | |
| 20260502163414 | 25 | 0.0 | 0.0 | 0.00 | 0.00 | 0.00 | 25 | 1018.0 | |
| 20260502162414 | 26 | 0.0 | 0.0 | 0.00 | 0.00 | 0.00 | 24 | 1018.0 | |
| 20260502161413 | 26 | 0.0 | 0.0 | 0.00 | 0.00 | 0.00 | 24 | 1018.3 | |
| 20260502160418 | 26 | 0.0 | 0.0 | 0.00 | 0.00 | 0.00 | 23 | 1018.3 | |
| 20260502151415 | 26 | 0.0 | 0.0 | 0.00 | 0.00 | 0.00 | 24 | 1019.0 | |
| 20260502150413 | 26 | 0.0 | 0.0 | 0.00 | 0.00 | 0.00 | 25 | 1019.1 | |
| 20260502130417 | 26 | 0.0 | 0.0 | 0.00 | 0.00 | 0.00 | 26 | 1020.5 | |
| 20260502123419 | 26 | 0.0 | 0.0 | 0.00 | 0.00 | 0.00 | 31 | 1020.9 | |
| 20260502121419 | 26 | 0.0 | 0.0 | 0.00 | 0.00 | 0.00 | 25 | 1021.2 | |
| 20260502120413 | 26 | 0.0 | 0.0 | 0.00 | 0.00 | 0.00 | 26 | 1021.3 | |
| 20260502115418 | 26 | 0.0 | 0.0 | 0.00 | 0.00 | 0.00 | 27 | 1021.5 | |
| 20260502114413 | 26 | 0.0 | 0.0 | 0.00 | 0.00 | 0.00 | 26 | 1021.6 | |
| 20260502113414 | 26 | 0.0 | 0.0 | 0.00 | 0.00 | 0.00 | 26 | 1021.7 | |
| 20260502112415 | 25 | 0.0 | 0.0 | 0.00 | 0.00 | 0.00 | 28 | 1021.8 | |
| 20260502111414 | 25 | 0.0 | 0.0 | 0.00 | 0.00 | 0.00 | 27 | 1021.9 | |
| 20260502110414 | 25 | 0.0 | 0.0 | 0.00 | 0.00 | 0.00 | 26 | 1022.1 | |
| 20260502105413 | 26 | 0.0 | 0.0 | 0.00 | 0.00 | 0.00 | 28 | 1022.2 | |
| 20260502104419 | 26 | 0.0 | 0.0 | 0.00 | 0.00 | 0.00 | 27 | 1022.4 | |
| 20260502102419 | 25 | 0.0 | 0.0 | 0.00 | 0.00 | 0.00 | 27 | 1022.5 | |
| 20260502101415 | 25 | 0.0 | 0.0 | 0.00 | 0.00 | 0.00 | 27 | 1022.6 | |
| 20260502091415 | 24 | 0.0 | 0.0 | 0.00 | 0.00 | 0.00 | 31 | 1023.2 | |
| 20260502090418 | 24 | 0.0 | 0.0 | 0.00 | 0.00 | 0.00 | 31 | 1023.3 | |
| 20260502071414 | 21 | 0.0 | 0.0 | 0.00 | 0.00 | 0.00 | 39 | 1023.9 | |
| 20260502070418 | 21 | 0.0 | 0.0 | 0.00 | 0.00 | 0.00 | 38 | 1024.0 | |
| 20260502065414 | 20 | 0.0 | 0.0 | 0.00 | 0.00 | 0.00 | 39 | 1023.9 | |
| 20260502064417 | 20 | 0.0 | 0.0 | 0.00 | 0.00 | 0.00 | 40 | 1024.0 | |
| 20260502063414 | 19 | 0.0 | 0.0 | 0.00 | 0.00 | 0.00 | 41 | 1024.1 | |
| 20260502062419 | 18 | 0.0 | 0.0 | 0.00 | 0.00 | 0.00 | 46 | 1024.1 | |
| 20260502061414 | 18 | 0.0 | 0.0 | 0.00 | 0.00 | 0.00 | 47 | 1024.2 | |
| 20260502060418 | 17 | 0.0 | 0.0 | 0.00 | 0.00 | 0.00 | 45 | 1024.2 | |
| 20260502055416 | 17 | 0.0 | 0.0 | 0.00 | 0.00 | 0.00 | 47 | 1024.2 | |
| 20260502054414 | 17 | 0.0 | 0.0 | 0.00 | 0.00 | 0.00 | 47 | 1024.2 | |
| 20260502053414 | 16 | 0.0 | 0.0 | 0.00 | 0.00 | 0.00 | 49 | 1024.2 | |
| 20260502052414 | 16 | 0.0 | 0.0 | 0.00 | 0.00 | 0.00 | 49 | 1024.1 | |
| 20260502051414 | 15 | 0.0 | 0.0 | 0.00 | 0.00 | 0.00 | 51 | 1024.2 | |
| 20260502050417 | 15 | 0.0 | 0.0 | 0.00 | 0.00 | 0.00 | 52 | 1024.3 | |
| 20260502045419 | 15 | 0.0 | 0.0 | 0.00 | 0.00 | 0.00 | 53 | 1024.3 | |
| 20260502044417 | 15 | 0.0 | 0.0 | 0.00 | 0.00 | 0.00 | 53 | 1024.1 | |
| 20260502043419 | 15 | 0.0 | 0.0 | 0.00 | 0.00 | 0.00 | 54 | 1024.1 | |
| 20260502042415 | 13 | 0.0 | 0.0 | 0.00 | 0.00 | 0.00 | 58 | 1024.2 | |
| 20260502041413 | 12 | 0.0 | 0.0 | 0.00 | 0.00 | 0.00 | 61 | 1024.2 | |
| 20260502040414 | 14 | 0.0 | 0.0 | 0.00 | 0.00 | 0.00 | 56 | 1024.1 | |
| 20260502035414 | 12 | 0.0 | 0.0 | 0.00 | 0.00 | 0.00 | 65 | 1024.2 | |
| 20260502034419 | 12 | 0.0 | 0.0 | 0.00 | 0.00 | 0.00 | 64 | 1024.2 | |
| 20260502033413 | 12 | 0.0 | 0.0 | 0.00 | 0.00 | 0.00 | 63 | 1024.3 | |
| 20260502032418 | 12 | 0.0 | 0.0 | 0.00 | 0.00 | 0.00 | 62 | 1024.2 | |
| 20260502031418 | 12 | 0.0 | 0.0 | 0.00 | 0.00 | 0.00 | 65 | 1024.4 | |
| 20260502030418 | 12 | 0.0 | 0.0 | 0.00 | 0.00 | 0.00 | 65 | 1024.4 | |
| 20260502024415 | 11 | 0.0 | 0.0 | 0.00 | 0.00 | 0.00 | 65 | 1024.4 | |
| 20260502023414 | 12 | 0.0 | 0.0 | 0.00 | 0.00 | 0.00 | 65 | 1024.4 | |
| 20260502022417 | 12 | 0.0 | 0.0 | 0.00 | 0.00 | 0.00 | 62 | 1024.4 | |
| 20260502021414 | 13 | 0.0 | 0.0 | 0.00 | 0.00 | 0.00 | 61 | 1024.4 | |
| 20260502020414 | 13 | 0.0 | 0.0 | 0.00 | 0.00 | 0.00 | 60 | 1024.3 | |
| 20260502015414 | 13 | 0.0 | 0.0 | 0.00 | 0.00 | 0.00 | 62 | 1024.3 | |
| 20260502014418 | 13 | 0.0 | 0.0 | 0.00 | 0.00 | 0.00 | 61 | 1024.3 | |
| 20260502013418 | 13 | 0.0 | 0.0 | 0.00 | 0.00 | 0.00 | 60 | 1024.2 | |
| 20260502011414 | 12 | 0.0 | 0.0 | 0.00 | 0.00 | 0.00 | 64 | 1024.5 | |
| 20260502010414 | 12 | 0.0 | 0.0 | 0.00 | 0.00 | 0.00 | 61 | 1024.5 | |
| 20260502005417 | 13 | 0.0 | 0.0 | 0.00 | 0.00 | 0.00 | 58 | 1024.3 |